createdAt,value
2019-04-04T00:00:14.315Z,0.00
2019-04-04T00:01:13.396Z,0.00
2019-04-04T00:02:13.425Z,0.00
2019-04-04T00:03:13.375Z,0.00
2019-04-04T00:04:13.373Z,0.00
2019-04-04T00:05:13.356Z,0.00
2019-04-04T00:06:13.352Z,0.00
2019-04-04T00:07:13.351Z,0.00
2019-04-04T00:08:13.400Z,0.00
2019-04-04T00:09:13.306Z,0.00
2019-04-04T00:10:13.311Z,0.00
2019-04-04T00:11:13.282Z,0.00
2019-04-04T00:12:13.314Z,0.00
2019-04-04T00:13:13.265Z,0.00
2019-04-04T00:14:13.541Z,0.00
2019-04-04T00:15:14.941Z,0.00
2019-04-04T00:16:13.955Z,0.00
2019-04-04T00:17:13.962Z,0.00
2019-04-04T00:18:13.234Z,0.00
2019-04-04T00:19:13.190Z,0.00
2019-04-04T00:20:13.341Z,0.00
2019-04-04T00:21:13.169Z,0.00
2019-04-04T00:22:13.156Z,0.00
2019-04-04T00:23:13.146Z,0.00
2019-04-04T00:24:13.156Z,0.00
2019-04-04T00:25:13.125Z,0.00
2019-04-04T00:26:13.966Z,0.00
2019-04-04T00:27:13.672Z,0.00
2019-04-04T00:28:15.007Z,0.00
2019-04-04T00:29:13.078Z,0.00
2019-04-04T00:30:13.087Z,0.00
2019-04-04T00:31:13.055Z,0.00
2019-04-04T00:32:13.056Z,0.00
2019-04-04T00:33:13.034Z,0.00
2019-04-04T00:34:13.846Z,0.00
2019-04-04T00:35:13.033Z,0.00
2019-04-04T00:36:13.971Z,0.00
2019-04-04T00:37:12.985Z,0.00
2019-04-04T00:38:12.976Z,0.00
2019-04-04T00:39:12.968Z,0.00
2019-04-04T00:40:12.961Z,0.00
2019-04-04T00:41:13.538Z,0.00
2019-04-04T00:42:12.928Z,0.00
2019-04-04T00:43:12.921Z,0.00
2019-04-04T00:44:12.905Z,0.00
2019-04-04T00:45:12.891Z,0.00
2019-04-04T00:46:12.883Z,0.00
2019-04-04T00:47:12.899Z,0.00
2019-04-04T00:48:12.866Z,0.00
2019-04-04T00:49:12.863Z,0.00
2019-04-04T00:50:12.852Z,0.00
2019-04-04T00:51:12.827Z,0.00
2019-04-04T00:52:12.834Z,0.00
2019-04-04T00:53:12.826Z,0.00
2019-04-04T00:54:14.125Z,0.00
2019-04-04T00:55:15.553Z,0.00
2019-04-04T00:56:12.773Z,0.00
2019-04-04T00:57:12.825Z,0.00
2019-04-04T00:58:12.751Z,0.00
2019-04-04T00:59:12.762Z,0.00
2019-04-04T01:00:12.800Z,0.00
2019-04-04T01:01:12.715Z,0.00
2019-04-04T01:02:12.707Z,0.00
2019-04-04T01:03:12.732Z,0.00
2019-04-04T01:04:12.687Z,0.00
2019-04-04T01:05:12.676Z,0.00
2019-04-04T01:06:12.668Z,0.00
2019-04-04T01:07:12.652Z,0.00
2019-04-04T01:08:12.669Z,0.00
2019-04-04T01:09:13.724Z,0.00
2019-04-04T01:10:12.639Z,0.00
2019-04-04T01:11:12.631Z,0.00
2019-04-04T01:12:12.607Z,0.00
2019-04-04T01:13:12.586Z,0.00
2019-04-04T01:14:12.581Z,0.00
2019-04-04T01:15:12.612Z,0.00
2019-04-04T01:16:12.594Z,0.00
2019-04-04T01:17:12.550Z,0.00
2019-04-04T01:18:12.542Z,0.00
2019-04-04T01:19:12.530Z,0.00
2019-04-04T01:20:12.543Z,0.00
2019-04-04T01:21:12.523Z,0.00
2019-04-04T01:22:12.490Z,0.00
2019-04-04T01:23:12.481Z,0.00
2019-04-04T01:24:12.470Z,0.00
2019-04-04T01:25:12.487Z,0.00
2019-04-04T01:26:12.450Z,0.00
2019-04-04T01:27:12.438Z,0.00
2019-04-04T01:28:12.448Z,0.00
2019-04-04T01:29:12.421Z,0.00
2019-04-04T01:30:12.728Z,0.00
2019-04-04T01:31:14.733Z,0.00
2019-04-04T01:32:12.454Z,0.00
2019-04-04T01:33:12.391Z,0.00
2019-04-04T01:34:12.361Z,0.00
2019-04-04T01:35:12.393Z,0.00
2019-04-04T01:36:12.359Z,0.00
2019-04-04T01:37:12.327Z,0.00
2019-04-04T01:38:12.311Z,0.00
2019-04-04T01:39:12.306Z,0.00
2019-04-04T01:40:12.300Z,0.00
2019-04-04T01:41:12.318Z,0.00
2019-04-04T01:42:12.298Z,0.00
2019-04-04T01:43:12.289Z,0.00
2019-04-04T01:44:12.247Z,0.00
2019-04-04T01:45:13.206Z,0.00
2019-04-04T01:46:12.977Z,0.00
2019-04-04T01:47:12.215Z,0.00
2019-04-04T01:48:12.206Z,0.00
2019-04-04T01:49:12.215Z,0.00
2019-04-04T01:50:12.185Z,0.00
2019-04-04T01:51:12.181Z,0.00
2019-04-04T01:52:12.217Z,0.00
2019-04-04T01:53:12.146Z,0.00
2019-04-04T01:54:12.138Z,0.00
2019-04-04T01:55:12.129Z,0.00
2019-04-04T01:56:12.290Z,0.00
2019-04-04T01:57:12.110Z,0.00
2019-04-04T01:58:12.139Z,0.00
2019-04-04T01:59:12.931Z,0.00
2019-04-04T02:00:14.744Z,0.00
2019-04-04T02:01:12.066Z,0.00
2019-04-04T02:02:12.061Z,0.00
2019-04-04T02:03:12.036Z,0.00
2019-04-04T02:04:12.058Z,0.00
2019-04-04T02:05:12.015Z,0.00
2019-04-04T02:06:12.003Z,0.00
2019-04-04T02:07:11.995Z,0.00
2019-04-04T02:08:11.989Z,0.00
2019-04-04T02:09:11.990Z,0.00
2019-04-04T02:10:11.962Z,0.00
2019-04-04T02:11:11.963Z,0.00
2019-04-04T02:12:12.015Z,0.00
2019-04-04T02:13:11.926Z,0.00
2019-04-04T02:14:12.498Z,0.00
2019-04-04T02:15:13.729Z,0.00
2019-04-04T02:16:11.904Z,0.00
2019-04-04T02:17:11.885Z,0.00
2019-04-04T02:18:11.875Z,0.00
2019-04-04T02:19:11.859Z,0.00
2019-04-04T02:20:11.875Z,0.00
2019-04-04T02:21:11.843Z,0.00
2019-04-04T02:22:11.828Z,0.00
2019-04-04T02:23:11.821Z,0.00
2019-04-04T02:24:11.804Z,0.00
2019-04-04T02:25:11.834Z,0.00
2019-04-04T02:26:11.816Z,0.00
2019-04-04T02:27:11.778Z,0.00
2019-04-04T02:28:11.827Z,0.00
2019-04-04T02:29:11.802Z,0.00
2019-04-04T02:30:14.828Z,0.00
2019-04-04T02:31:11.729Z,0.00
2019-04-04T02:32:11.757Z,0.00
2019-04-04T02:33:11.713Z,0.00
2019-04-04T02:34:11.716Z,0.00
2019-04-04T02:35:11.873Z,0.00
2019-04-04T02:36:16.327Z,0.00
2019-04-04T02:37:11.677Z,0.00
2019-04-04T02:38:11.669Z,0.00
2019-04-04T02:39:11.785Z,0.00
2019-04-04T02:40:11.643Z,0.00
2019-04-04T02:41:15.054Z,0.00
2019-04-04T02:42:11.615Z,0.00
2019-04-04T02:43:11.598Z,0.00
2019-04-04T02:44:11.582Z,0.00
2019-04-04T02:45:11.613Z,0.00
2019-04-04T02:46:12.417Z,0.00
2019-04-04T02:47:11.552Z,0.00
2019-04-04T02:48:11.542Z,0.00
2019-04-04T02:49:11.524Z,0.00
2019-04-04T02:50:11.518Z,0.00
2019-04-04T02:51:11.546Z,0.00
2019-04-04T02:52:13.292Z,0.00
2019-04-04T02:53:11.498Z,0.00
2019-04-04T02:54:11.470Z,0.00
2019-04-04T02:55:11.574Z,0.00
2019-04-04T02:56:11.446Z,0.00
2019-04-04T02:57:11.455Z,0.00
2019-04-04T02:58:15.056Z,0.00
2019-04-04T02:59:11.427Z,0.00
2019-04-04T03:00:11.465Z,0.00
2019-04-04T03:01:11.401Z,0.00
2019-04-04T03:02:11.414Z,0.00
2019-04-04T03:03:11.393Z,0.00
2019-04-04T03:04:13.538Z,0.00
2019-04-04T03:05:11.350Z,0.00
2019-04-04T03:06:11.341Z,0.00
2019-04-04T03:07:11.330Z,0.00
2019-04-04T03:08:11.317Z,0.00
2019-04-04T03:09:11.311Z,0.00
2019-04-04T03:10:15.042Z,0.00
2019-04-04T03:11:12.281Z,0.00
2019-04-04T03:12:11.284Z,0.00
2019-04-04T03:13:11.267Z,0.00
2019-04-04T03:14:11.263Z,0.00
2019-04-04T03:15:11.274Z,0.00
2019-04-04T03:16:11.223Z,0.00
2019-04-04T03:17:11.228Z,0.00
2019-04-04T03:18:11.210Z,0.00
2019-04-04T03:19:11.998Z,0.00
2019-04-04T03:20:11.188Z,0.00
2019-04-04T03:21:11.201Z,0.00
2019-04-04T03:22:11.243Z,0.00
2019-04-04T03:23:11.157Z,0.00
2019-04-04T03:24:11.139Z,0.00
2019-04-04T03:25:14.192Z,0.00
2019-04-04T03:26:11.150Z,0.00
2019-04-04T03:27:11.111Z,0.00
2019-04-04T03:28:11.119Z,0.00
2019-04-04T03:29:11.110Z,0.00
2019-04-04T03:30:14.646Z,0.00
2019-04-04T03:31:12.058Z,0.00
2019-04-04T03:32:14.595Z,0.00
2019-04-04T03:33:12.124Z,0.00
2019-04-04T03:34:12.788Z,0.00
2019-04-04T03:35:11.016Z,0.00
2019-04-04T03:36:11.007Z,0.00
2019-04-04T03:37:12.475Z,0.00
2019-04-04T03:38:13.469Z,0.00
2019-04-04T03:39:10.981Z,0.00
2019-04-04T03:40:10.977Z,0.00
2019-04-04T03:41:11.017Z,0.00
2019-04-04T03:42:10.979Z,0.00
2019-04-04T03:43:10.932Z,0.00
2019-04-04T03:44:10.920Z,0.00
2019-04-04T03:45:10.902Z,0.00
2019-04-04T03:46:10.896Z,0.00
2019-04-04T03:47:11.372Z,0.00
2019-04-04T03:48:10.893Z,0.00
2019-04-04T03:49:10.876Z,0.00
2019-04-04T03:50:10.861Z,0.00
2019-04-04T03:51:10.841Z,0.00
2019-04-04T03:52:11.623Z,0.00
2019-04-04T03:53:10.852Z,0.00
2019-04-04T03:54:10.806Z,0.00
2019-04-04T03:55:10.791Z,0.00
2019-04-04T03:56:10.786Z,0.00
2019-04-04T03:57:12.191Z,0.00
2019-04-04T03:58:10.763Z,0.00
2019-04-04T03:59:10.769Z,0.00
2019-04-04T04:00:10.745Z,0.00
2019-04-04T04:01:13.207Z,0.00
2019-04-04T04:02:10.713Z,0.00
2019-04-04T04:03:10.706Z,0.00
2019-04-04T04:04:10.717Z,0.00
2019-04-04T04:05:14.571Z,0.00
2019-04-04T04:06:10.669Z,0.00
2019-04-04T04:07:13.919Z,0.00
2019-04-04T04:08:10.685Z,0.00
2019-04-04T04:09:10.638Z,0.00
2019-04-04T04:10:10.650Z,0.00
2019-04-04T04:11:10.615Z,0.00
2019-04-04T04:12:11.462Z,0.00
2019-04-04T04:13:10.596Z,0.00
2019-04-04T04:14:10.598Z,0.00
2019-04-04T04:15:10.595Z,0.00
2019-04-04T04:16:10.559Z,0.00
2019-04-04T04:17:11.709Z,0.00
2019-04-04T04:18:10.539Z,0.00
2019-04-04T04:19:10.528Z,0.00
2019-04-04T04:20:10.537Z,0.00
2019-04-04T04:21:11.316Z,0.00
2019-04-04T04:22:12.855Z,0.00
2019-04-04T04:23:10.482Z,0.00
2019-04-04T04:24:10.564Z,0.00
2019-04-04T04:25:10.462Z,0.00
2019-04-04T04:26:10.509Z,0.00
2019-04-04T04:27:14.428Z,0.00
2019-04-04T04:28:10.450Z,0.00
2019-04-04T04:29:10.413Z,0.00
2019-04-04T04:30:10.403Z,0.00
2019-04-04T04:31:14.266Z,0.00
2019-04-04T04:32:10.387Z,0.00
2019-04-04T04:33:10.393Z,0.00
2019-04-04T04:34:10.369Z,0.00
2019-04-04T04:35:10.357Z,0.00
2019-04-04T04:36:15.017Z,0.00
2019-04-04T04:37:11.333Z,0.00
2019-04-04T04:38:10.346Z,0.00
2019-04-04T04:39:10.305Z,0.00
2019-04-04T04:40:13.631Z,0.00
2019-04-04T04:41:10.282Z,0.00
2019-04-04T04:42:10.287Z,0.00
2019-04-04T04:43:10.295Z,4.00
2019-04-04T04:44:10.254Z,4.00
2019-04-04T04:45:12.131Z,4.00
2019-04-04T04:46:10.285Z,4.00
2019-04-04T04:47:10.225Z,4.00
2019-04-04T04:48:10.211Z,8.00
2019-04-04T04:49:10.231Z,8.00
2019-04-04T04:50:10.224Z,8.00
2019-04-04T04:51:12.007Z,4.00
2019-04-04T04:52:10.158Z,8.00
2019-04-04T04:53:10.148Z,8.00
2019-04-04T04:54:10.221Z,12.00
2019-04-04T04:55:12.041Z,12.00
2019-04-04T04:56:10.118Z,16.00
2019-04-04T04:57:17.529Z,16.00
2019-04-04T04:58:11.300Z,16.00
2019-04-04T04:59:11.118Z,24.00
2019-04-04T05:00:10.073Z,24.00
2019-04-04T05:01:10.081Z,28.00
2019-04-04T05:02:10.052Z,32.00
2019-04-04T05:03:10.067Z,36.00
2019-04-04T05:04:10.031Z,44.00
2019-04-04T05:05:10.027Z,44.00
2019-04-04T05:06:10.002Z,52.00
2019-04-04T05:07:10.016Z,56.00
2019-04-04T05:08:10.654Z,60.00
2019-04-04T05:09:09.971Z,64.00
2019-04-04T05:10:10.090Z,64.00
2019-04-04T05:11:09.954Z,64.00
2019-04-04T05:12:09.966Z,68.00
2019-04-04T05:13:09.923Z,76.00
2019-04-04T05:14:09.914Z,84.00
2019-04-04T05:15:09.939Z,96.00
2019-04-04T05:16:09.900Z,108.00
2019-04-04T05:17:10.200Z,112.00
2019-04-04T05:18:11.870Z,120.00
2019-04-04T05:19:09.861Z,120.00
2019-04-04T05:20:09.878Z,120.00
2019-04-04T05:21:09.840Z,120.00
2019-04-04T05:22:09.869Z,116.00
2019-04-04T05:23:11.195Z,108.00
2019-04-04T05:24:09.806Z,104.00
2019-04-04T05:25:09.824Z,104.00
2019-04-04T05:26:09.956Z,104.00
2019-04-04T05:27:09.792Z,104.00
2019-04-04T05:28:10.713Z,108.00
2019-04-04T05:29:13.272Z,116.00
2019-04-04T05:30:09.749Z,124.00
2019-04-04T05:31:09.745Z,132.00
2019-04-04T05:32:09.715Z,132.00
2019-04-04T05:33:09.715Z,132.00
2019-04-04T05:34:09.722Z,140.00
2019-04-04T05:35:09.717Z,152.00
2019-04-04T05:36:09.716Z,172.00
2019-04-04T05:37:09.666Z,184.00
2019-04-04T05:38:12.202Z,204.00
2019-04-04T05:39:09.639Z,216.00
2019-04-04T05:40:09.670Z,220.00
2019-04-04T05:41:09.665Z,220.00
2019-04-04T05:42:09.628Z,228.00
2019-04-04T05:43:09.622Z,232.00
2019-04-04T05:44:10.334Z,232.00
2019-04-04T05:45:09.615Z,228.00
2019-04-04T05:46:09.568Z,224.00
2019-04-04T05:47:09.560Z,224.00
2019-04-04T05:48:09.545Z,228.00
2019-04-04T05:49:09.573Z,244.00
2019-04-04T05:50:11.343Z,268.00
2019-04-04T05:51:09.539Z,304.00
2019-04-04T05:52:09.524Z,356.00
2019-04-04T05:53:09.522Z,388.00
2019-04-04T05:54:09.479Z,392.00
2019-04-04T05:55:10.934Z,384.00
2019-04-04T05:56:09.476Z,368.00
2019-04-04T05:57:09.459Z,364.00
2019-04-04T05:58:09.438Z,372.00
2019-04-04T05:59:09.462Z,384.00
2019-04-04T06:00:09.417Z,392.00
2019-04-04T06:01:09.411Z,408.00
2019-04-04T06:02:11.516Z,448.00
2019-04-04T06:03:09.379Z,508.00
2019-04-04T06:04:09.368Z,552.00
2019-04-04T06:05:09.383Z,540.00
2019-04-04T06:06:10.609Z,516.00
2019-04-04T06:07:09.329Z,516.00
2019-04-04T06:08:09.347Z,544.00
2019-04-04T06:09:09.319Z,564.00
2019-04-04T06:10:11.870Z,576.00
2019-04-04T06:11:09.287Z,592.00
2019-04-04T06:12:09.277Z,596.00
2019-04-04T06:13:09.263Z,596.00
2019-04-04T06:14:09.274Z,624.00
2019-04-04T06:15:09.245Z,664.00
2019-04-04T06:16:09.234Z,720.00
2019-04-04T06:17:09.237Z,760.00
2019-04-04T06:18:11.748Z,748.00
2019-04-04T06:19:09.225Z,700.00
2019-04-04T06:20:09.195Z,656.00
2019-04-04T06:21:09.184Z,652.00
2019-04-04T06:22:09.193Z,660.00
2019-04-04T06:23:09.184Z,664.00
2019-04-04T06:24:09.149Z,672.00
2019-04-04T06:25:09.166Z,692.00
2019-04-04T06:26:09.128Z,708.00
2019-04-04T06:27:09.739Z,720.00
2019-04-04T06:28:09.878Z,732.00
2019-04-04T06:29:09.091Z,760.00
2019-04-04T06:30:09.077Z,784.00
2019-04-04T06:31:09.085Z,800.00
2019-04-04T06:32:09.062Z,816.00
2019-04-04T06:33:09.204Z,832.00
2019-04-04T06:34:10.425Z,848.00
2019-04-04T06:35:09.025Z,876.00
2019-04-04T06:36:09.010Z,900.00
2019-04-04T06:37:09.028Z,912.00
2019-04-04T06:38:08.990Z,940.00
2019-04-04T06:39:09.001Z,1008.00
2019-04-04T06:40:08.963Z,1104.00
2019-04-04T06:41:08.955Z,1192.00
2019-04-04T06:42:11.346Z,1248.00
2019-04-04T06:43:11.539Z,1312.00
2019-04-04T06:44:08.925Z,1376.00
2019-04-04T06:45:08.935Z,1412.00
2019-04-04T06:46:09.062Z,1452.00
2019-04-04T06:47:08.916Z,1528.00
2019-04-04T06:48:08.878Z,1592.00
2019-04-04T06:49:08.865Z,1624.00
2019-04-04T06:50:08.958Z,1620.00
2019-04-04T06:51:08.870Z,1608.00
2019-04-04T06:52:09.479Z,1592.00
2019-04-04T06:53:08.822Z,1564.00
2019-04-04T06:54:08.811Z,1524.00
2019-04-04T06:55:08.801Z,1476.00
2019-04-04T06:56:08.794Z,1424.00
2019-04-04T06:57:08.811Z,1364.00
2019-04-04T06:58:09.710Z,1316.00
2019-04-04T06:59:11.240Z,1312.00
2019-04-04T07:00:08.754Z,1344.00
2019-04-04T07:01:11.151Z,1388.00
2019-04-04T07:02:08.792Z,1452.00
2019-04-04T07:03:08.741Z,1532.00
2019-04-04T07:04:08.702Z,1624.00
2019-04-04T07:05:10.539Z,1708.00
2019-04-04T07:06:10.228Z,1740.00
2019-04-04T07:07:08.672Z,1728.00
2019-04-04T07:08:08.667Z,1696.00
2019-04-04T07:09:08.673Z,1576.00
2019-04-04T07:10:08.785Z,1404.00
2019-04-04T07:11:21.189Z,1284.00
2019-04-04T07:12:20.843Z,1212.00
2019-04-04T07:13:21.100Z,1188.00
2019-04-04T07:14:09.591Z,1224.00
2019-04-04T07:15:11.139Z,1296.00
2019-04-04T07:16:08.579Z,1384.00
2019-04-04T07:17:09.503Z,1452.00
2019-04-04T07:18:10.175Z,1492.00
2019-04-04T07:19:08.551Z,1500.00
2019-04-04T07:20:08.538Z,1480.00
2019-04-04T07:21:08.515Z,1440.00
2019-04-04T07:22:08.504Z,1420.00
2019-04-04T07:23:08.512Z,1444.00
2019-04-04T07:24:08.492Z,1492.00
2019-04-04T07:25:08.469Z,1524.00
2019-04-04T07:26:13.996Z,1540.00
2019-04-04T07:27:09.442Z,1604.00
2019-04-04T07:28:08.459Z,1712.00
2019-04-04T07:29:08.428Z,1820.00
2019-04-04T07:30:08.421Z,1944.00
2019-04-04T07:31:08.401Z,2076.00
2019-04-04T07:32:09.485Z,2216.00
2019-04-04T07:33:11.790Z,2308.00
2019-04-04T07:34:08.398Z,2352.00
2019-04-04T07:35:08.466Z,2344.00
2019-04-04T07:36:08.378Z,2320.00
2019-04-04T07:37:08.344Z,2352.00
2019-04-04T07:38:08.333Z,2480.00
2019-04-04T07:39:08.345Z,2712.00
2019-04-04T07:40:08.333Z,2956.00
2019-04-04T07:41:09.045Z,3108.00
2019-04-04T07:42:08.297Z,3188.00
2019-04-04T07:43:08.730Z,3220.00
2019-04-04T07:44:08.256Z,3260.00
2019-04-04T07:45:08.251Z,3288.00
2019-04-04T07:46:16.162Z,3240.00
2019-04-04T07:47:09.219Z,3192.00
2019-04-04T07:48:08.219Z,3136.00
2019-04-04T07:49:08.200Z,2996.00
2019-04-04T07:50:08.188Z,2796.00
2019-04-04T07:51:08.185Z,2676.00
2019-04-04T07:52:08.197Z,2672.00
2019-04-04T07:53:08.237Z,2740.00
2019-04-04T07:54:08.178Z,2840.00
2019-04-04T07:55:10.921Z,2956.00
2019-04-04T07:56:08.140Z,3068.00
2019-04-04T07:57:08.112Z,3088.00
2019-04-04T07:58:08.141Z,2952.00
2019-04-04T07:59:08.089Z,2800.00
2019-04-04T08:00:08.089Z,2708.00
2019-04-04T08:01:08.066Z,2628.00
2019-04-04T08:02:08.084Z,2532.00
2019-04-04T08:03:08.047Z,2548.00
2019-04-04T08:04:08.037Z,2772.00
2019-04-04T08:05:08.019Z,3192.00
2019-04-04T08:06:08.017Z,3712.00
2019-04-04T08:07:08.028Z,4056.00
2019-04-04T08:08:07.986Z,4064.00
2019-04-04T08:09:07.977Z,3928.00
2019-04-04T08:10:20.050Z,3712.00
2019-04-04T08:11:08.953Z,3428.00
2019-04-04T08:12:08.068Z,3100.00
2019-04-04T08:13:07.934Z,2868.00
2019-04-04T08:14:07.926Z,2748.00
2019-04-04T08:15:07.906Z,2728.00
2019-04-04T08:16:07.899Z,2800.00
2019-04-04T08:17:07.917Z,2788.00
2019-04-04T08:18:07.884Z,2764.00
2019-04-04T08:19:07.860Z,2732.00
2019-04-04T08:20:07.879Z,2672.00
2019-04-04T08:21:07.845Z,2680.00
2019-04-04T08:22:07.880Z,2744.00
2019-04-04T08:23:07.848Z,2812.00
2019-04-04T08:24:07.815Z,2840.00
2019-04-04T08:25:07.802Z,2860.00
2019-04-04T08:26:10.037Z,2892.00
2019-04-04T08:27:07.778Z,2904.00
2019-04-04T08:28:07.767Z,2972.00
2019-04-04T08:29:07.791Z,3112.00
2019-04-04T08:30:07.753Z,3276.00
2019-04-04T08:31:09.859Z,3396.00
2019-04-04T08:32:07.719Z,3328.00
2019-04-04T08:33:07.744Z,3232.00
2019-04-04T08:34:07.704Z,3204.00
2019-04-04T08:35:07.689Z,3128.00
2019-04-04T08:36:07.828Z,3116.00
2019-04-04T08:37:07.664Z,3132.00
2019-04-04T08:38:07.656Z,3104.00
2019-04-04T08:39:07.709Z,3092.00
2019-04-04T08:40:07.635Z,3092.00
2019-04-04T08:41:07.635Z,3028.00
2019-04-04T08:42:07.642Z,3084.00
2019-04-04T08:43:07.602Z,3260.00
2019-04-04T08:44:07.588Z,3396.00
2019-04-04T08:45:07.576Z,3460.00
2019-04-04T08:46:07.567Z,3384.00
2019-04-04T08:47:07.550Z,3180.00
2019-04-04T08:48:07.577Z,3024.00
2019-04-04T08:49:07.543Z,3244.00
2019-04-04T08:50:07.544Z,3672.00
2019-04-04T08:51:07.588Z,3696.00
2019-04-04T08:52:16.531Z,3312.00
2019-04-04T08:53:08.482Z,3056.00
2019-04-04T08:54:07.474Z,3044.00
2019-04-04T08:55:07.557Z,3120.00
2019-04-04T08:56:07.477Z,3072.00
2019-04-04T08:57:07.451Z,2992.00
2019-04-04T08:58:07.429Z,2980.00
2019-04-04T08:59:07.416Z,2984.00
2019-04-04T09:00:07.407Z,3032.00
2019-04-04T09:01:07.396Z,3036.00
2019-04-04T09:02:07.404Z,3004.00
2019-04-04T09:03:07.399Z,3024.00
2019-04-04T09:04:07.356Z,3080.00
2019-04-04T09:05:12.298Z,3056.00
2019-04-04T09:06:08.342Z,2964.00
2019-04-04T09:07:07.324Z,2936.00
2019-04-04T09:08:07.325Z,3080.00
2019-04-04T09:09:07.338Z,3300.00
2019-04-04T09:10:07.301Z,3396.00
2019-04-04T09:11:07.284Z,3388.00
2019-04-04T09:12:07.326Z,3352.00
2019-04-04T09:13:07.270Z,3296.00
2019-04-04T09:14:07.254Z,3268.00
2019-04-04T09:15:07.255Z,3348.00
2019-04-04T09:16:07.226Z,3484.00
2019-04-04T09:17:07.214Z,3576.00
2019-04-04T09:18:07.207Z,3584.00
2019-04-04T09:19:07.197Z,3372.00
2019-04-04T09:20:09.489Z,3208.00
2019-04-04T09:21:07.175Z,3224.00
2019-04-04T09:22:10.814Z,3188.00
2019-04-04T09:23:07.149Z,3120.00
2019-04-04T09:24:07.138Z,3168.00
2019-04-04T09:25:10.166Z,3280.00
2019-04-04T09:26:07.138Z,3360.00
2019-04-04T09:27:07.100Z,3424.00
2019-04-04T09:28:07.092Z,3588.00
2019-04-04T09:29:07.082Z,3828.00
2019-04-04T09:30:07.069Z,3932.00
2019-04-04T09:31:07.068Z,3820.00
2019-04-04T09:32:07.079Z,3668.00
2019-04-04T09:33:07.098Z,3688.00
2019-04-04T09:34:07.033Z,3716.00
2019-04-04T09:35:07.014Z,3504.00
2019-04-04T09:36:07.001Z,3268.00
2019-04-04T09:37:08.816Z,3192.00
2019-04-04T09:38:07.038Z,3044.00
2019-04-04T09:39:06.998Z,2812.00
2019-04-04T09:40:06.958Z,2724.00
2019-04-04T09:41:07.556Z,2844.00
2019-04-04T09:42:06.943Z,2944.00
2019-04-04T09:43:06.922Z,3120.00
2019-04-04T09:44:06.954Z,3136.00
2019-04-04T09:45:06.927Z,3064.00
2019-04-04T09:46:06.895Z,2980.00
2019-04-04T09:47:06.877Z,2952.00
2019-04-04T09:48:06.868Z,2964.00
2019-04-04T09:49:07.005Z,3040.00
2019-04-04T09:50:06.867Z,3104.00
2019-04-04T09:51:06.833Z,3144.00
2019-04-04T09:52:06.826Z,3156.00
2019-04-04T09:53:06.810Z,3152.00
2019-04-04T09:54:06.819Z,3180.00
2019-04-04T09:55:06.817Z,3196.00
2019-04-04T09:56:06.791Z,3120.00
2019-04-04T09:57:06.765Z,2996.00
2019-04-04T09:58:06.754Z,3044.00
2019-04-04T09:59:06.772Z,3268.00
2019-04-04T10:00:06.737Z,3420.00
2019-04-04T10:01:06.927Z,3540.00
2019-04-04T10:02:06.712Z,3628.00
2019-04-04T10:03:06.695Z,3704.00
2019-04-04T10:04:06.692Z,3716.00
2019-04-04T10:05:06.923Z,3592.00
2019-04-04T10:06:06.666Z,3596.00
2019-04-04T10:07:06.664Z,3772.00
2019-04-04T10:08:06.649Z,3992.00
2019-04-04T10:09:15.627Z,4156.00
2019-04-04T10:10:07.862Z,4256.00
2019-04-04T10:11:06.642Z,4256.00
2019-04-04T10:12:06.605Z,4216.00
2019-04-04T10:13:06.588Z,4108.00
2019-04-04T10:14:06.581Z,3788.00
2019-04-04T10:15:06.569Z,3212.00
2019-04-04T10:16:06.577Z,2948.00
2019-04-04T10:17:06.543Z,2812.00
2019-04-04T10:18:06.533Z,2736.00
2019-04-04T10:19:06.523Z,2668.00
2019-04-04T10:20:06.531Z,2576.00
2019-04-04T10:21:12.023Z,2448.00
2019-04-04T10:22:07.535Z,2384.00
2019-04-04T10:23:06.503Z,2364.00
2019-04-04T10:24:06.499Z,2360.00
2019-04-04T10:25:06.457Z,2228.00
2019-04-04T10:26:06.467Z,1944.00
2019-04-04T10:27:06.445Z,1592.00
2019-04-04T10:28:06.416Z,1364.00
2019-04-04T10:29:06.435Z,1328.00
2019-04-04T10:30:06.398Z,1428.00
2019-04-04T10:31:06.387Z,1452.00
2019-04-04T10:32:06.396Z,1372.00
2019-04-04T10:33:06.365Z,1400.00
2019-04-04T10:34:06.353Z,1616.00
2019-04-04T10:35:06.359Z,1808.00
2019-04-04T10:36:06.330Z,1968.00
2019-04-04T10:37:06.326Z,2320.00
2019-04-04T10:38:06.316Z,2676.00
2019-04-04T10:39:06.295Z,2900.00
2019-04-04T10:40:06.292Z,3064.00
2019-04-04T10:41:06.302Z,3296.00
2019-04-04T10:42:06.266Z,3532.00
2019-04-04T10:43:06.248Z,3648.00
2019-04-04T10:44:06.240Z,3812.00
2019-04-04T10:45:07.071Z,4084.00
2019-04-04T10:46:06.217Z,4316.00
2019-04-04T10:47:06.249Z,4544.00
2019-04-04T10:48:06.284Z,4704.00
2019-04-04T10:49:08.361Z,4892.00
2019-04-04T10:50:06.181Z,5124.00
2019-04-04T10:51:06.167Z,5476.00
2019-04-04T10:52:06.186Z,5828.00
2019-04-04T10:53:06.158Z,6000.00
2019-04-04T10:54:06.135Z,6048.00
2019-04-04T10:55:06.121Z,5632.00
2019-04-04T10:56:06.108Z,4956.00
2019-04-04T10:57:06.121Z,4344.00
2019-04-04T10:58:06.109Z,3748.00
2019-04-04T10:59:06.099Z,3080.00
2019-04-04T11:00:06.057Z,2596.00
2019-04-04T11:01:06.060Z,2432.00
2019-04-04T11:02:06.047Z,2540.00
2019-04-04T11:03:06.057Z,2788.00
2019-04-04T11:04:06.126Z,2780.00
2019-04-04T11:05:06.013Z,2660.00
2019-04-04T11:06:06.031Z,2772.00
2019-04-04T11:07:05.993Z,3176.00
2019-04-04T11:08:05.987Z,3628.00
2019-04-04T11:09:05.956Z,3856.00
2019-04-04T11:10:05.954Z,3840.00
2019-04-04T11:11:05.938Z,3760.00
2019-04-04T11:12:05.953Z,3716.00
2019-04-04T11:13:05.947Z,3504.00
2019-04-04T11:14:05.905Z,3364.00
2019-04-04T11:15:05.911Z,3396.00
2019-04-04T11:16:05.902Z,3468.00
2019-04-04T11:17:06.004Z,3512.00
2019-04-04T11:18:05.881Z,3472.00
2019-04-04T11:19:05.866Z,3296.00
2019-04-04T11:20:06.622Z,3188.00
2019-04-04T11:21:05.828Z,3104.00
2019-04-04T11:22:05.817Z,3068.00
2019-04-04T11:23:05.832Z,3156.00
2019-04-04T11:24:05.819Z,3384.00
2019-04-04T11:25:05.865Z,3476.00
2019-04-04T11:26:05.779Z,3352.00
2019-04-04T11:27:06.271Z,3160.00
2019-04-04T11:28:05.745Z,2992.00
2019-04-04T11:29:05.742Z,2892.00
2019-04-04T11:30:05.769Z,2876.00
2019-04-04T11:31:05.716Z,2896.00
2019-04-04T11:32:05.711Z,2936.00
2019-04-04T11:33:05.690Z,2984.00
2019-04-04T11:34:05.694Z,3000.00
2019-04-04T11:35:05.672Z,3016.00
2019-04-04T11:36:05.740Z,3072.00
2019-04-04T11:37:05.650Z,3168.00
2019-04-04T11:38:05.647Z,3228.00
2019-04-04T11:39:05.625Z,3280.00
2019-04-04T11:40:05.621Z,3328.00
2019-04-04T11:41:05.757Z,3360.00
2019-04-04T11:42:05.592Z,3352.00
2019-04-04T11:43:05.587Z,3392.00
2019-04-04T11:44:05.604Z,3432.00
2019-04-04T11:45:05.562Z,3328.00
2019-04-04T11:46:05.554Z,3132.00
2019-04-04T11:47:05.601Z,3084.00
2019-04-04T11:48:05.542Z,3252.00
2019-04-04T11:49:05.542Z,3516.00
2019-04-04T11:50:05.509Z,3724.00
2019-04-04T11:51:05.528Z,3784.00
2019-04-04T11:52:05.478Z,3740.00
2019-04-04T11:53:05.470Z,3720.00
2019-04-04T11:54:05.458Z,3748.00
2019-04-04T11:55:05.473Z,3728.00
2019-04-04T11:56:05.450Z,3652.00
2019-04-04T11:57:05.609Z,3524.00
2019-04-04T11:58:05.435Z,3384.00
2019-04-04T11:59:07.996Z,3356.00
2019-04-04T12:00:05.464Z,3428.00
2019-04-04T12:01:05.402Z,3472.00
2019-04-04T12:02:05.401Z,3460.00
2019-04-04T12:03:05.368Z,3464.00
2019-04-04T12:04:05.373Z,3516.00
2019-04-04T12:05:05.347Z,3616.00
2019-04-04T12:06:05.330Z,3688.00
2019-04-04T12:07:05.314Z,3660.00
2019-04-04T12:08:05.295Z,3556.00
2019-04-04T12:09:05.306Z,3500.00
2019-04-04T12:10:07.571Z,3480.00
2019-04-04T12:11:05.278Z,3600.00
2019-04-04T12:12:05.278Z,3844.00
2019-04-04T12:13:05.245Z,3964.00
2019-04-04T12:14:05.309Z,3800.00
2019-04-04T12:15:05.227Z,3488.00
2019-04-04T12:16:05.220Z,3168.00
2019-04-04T12:17:05.202Z,2976.00
2019-04-04T12:18:05.187Z,2868.00
2019-04-04T12:19:05.181Z,2860.00
2019-04-04T12:20:05.193Z,2876.00
2019-04-04T12:21:05.175Z,2864.00
2019-04-04T12:22:05.157Z,2904.00
2019-04-04T12:23:05.134Z,2924.00
2019-04-04T12:24:05.207Z,2876.00
2019-04-04T12:25:05.113Z,2768.00
2019-04-04T12:26:05.126Z,2708.00
2019-04-04T12:27:05.100Z,2744.00
2019-04-04T12:28:05.088Z,2720.00
2019-04-04T12:29:05.067Z,2636.00
2019-04-04T12:30:05.065Z,2592.00
2019-04-04T12:31:05.080Z,2708.00
2019-04-04T12:32:05.037Z,2916.00
2019-04-04T12:33:05.052Z,3028.00
2019-04-04T12:34:05.022Z,3040.00
2019-04-04T12:35:05.005Z,3092.00
2019-04-04T12:36:04.992Z,3244.00